In Rescue
 
Open Full Screen Window  High Contrast Mode
Wind Gusting 00 knots
07
May 25, 2022 10:33 PM EDT
Weather Information
Wind Direction
  160 °
Wind Speed
  07 kt (8 mph)
Wind Gust
  00 kt (0 mph)
Variable Wind
120°
200°
Altimeter
29.97 in
Visibility
10 SM
Temperature
23° C
73° F
Dewpoint
18° C
64° F
Humidity
74%
1hr Rain Fall
00.00 in.
24hr Rain Fall
00.00 in.
Sky Condition
Clear
VFR

METAR KMRT 260233Z AUTO 16007KT 120V200 10SM CLR 23/18 A2997 RMK AO2 T02320176

FAA Disclaimer: The data displayed is for advisory purposes only and is not to be used for flight planning or operations.